VKG7AJ LGSK-EKCH
Flight info
| Callsign | VKG7AJ |
|---|---|
| Flight time | 2h 48m |
| Altitude | 34000 |
| Route | TSL UL617 MAKED DCT RAXAD DCT OSVIX DCT PARAK DCT PATAK DCT BILNA DCT SOPAV DCT REGLI DCT DENKO L996 GOSOT/N0424F280 L996 ROE M743 TIDVU |
| Aircraft | A321/M-SDE3FGHIRWY/LB1 |
Departure
| Time | 2026-05-05 14:51 |
|---|---|
| Airport | Skiathos Island National Airport (LGSK) |
Arrival
| Time | 2026-05-05 17:39 |
|---|---|
| Airport | Copenhagen Kastrup Airport (EKCH) |
| Time | Latitude | Longitude | Altitude | Speed | Heading |
|---|---|---|---|---|---|
| 2026-05-05 14:34 | 39.17836 | 23.50211 | 39 ft | 0 kts | 289° |
| 2026-05-05 14:44 | 39.17829 | 23.50237 | 39 ft | 4 kts | 289° |
| 2026-05-05 14:44 | 39.17822 | 23.50264 | 37 ft | 4 kts | 281° |
| 2026-05-05 14:44 | 39.17824 | 23.50292 | 36 ft | 4 kts | 220° |
| 2026-05-05 14:44 | 39.17844 | 23.50306 | 37 ft | 1 kts | 199° |
| 2026-05-05 14:45 | 39.17845 | 23.50306 | 37 ft | 0 kts | 199° |
| 2026-05-05 14:47 | 39.17837 | 23.50303 | 35 ft | 4 kts | 199° |
| 2026-05-05 14:47 | 39.17798 | 23.50286 | 38 ft | 8 kts | 199° |
| 2026-05-05 14:47 | 39.17721 | 23.50260 | 39 ft | 15 kts | 187° |
| 2026-05-05 14:47 | 39.17619 | 23.50221 | 38 ft | 10 kts | 198° |
| 2026-05-05 14:48 | 39.17567 | 23.50248 | 39 ft | 8 kts | 137° |
| 2026-05-05 14:48 | 39.17518 | 23.50275 | 40 ft | 10 kts | 177° |
| 2026-05-05 14:48 | 39.17427 | 23.50240 | 38 ft | 18 kts | 199° |
| 2026-05-05 14:48 | 39.17282 | 23.50175 | 28 ft | 25 kts | 199° |
| 2026-05-05 14:49 | 39.17120 | 23.50102 | 20 ft | 18 kts | 200° |
| 2026-05-05 14:49 | 39.17016 | 23.50081 | 11 ft | 12 kts | 224° |
| 2026-05-05 14:49 | 39.17024 | 23.50059 | 11 ft | 1 kts | 19° |
| 2026-05-05 14:49 | 39.17024 | 23.50060 | 11 ft | 0 kts | 21° |
| 2026-05-05 14:50 | 39.17025 | 23.50060 | 11 ft | 4 kts | 22° |
| 2026-05-05 14:50 | 39.17329 | 23.50199 | 31 ft | 86 kts | 19° |
| 2026-05-05 14:50 | 39.18115 | 23.50548 | 53 ft | 150 kts | 20° |
| 2026-05-05 14:50 | 39.19161 | 23.51027 | 618 ft | 157 kts | 21° |
| 2026-05-05 14:51 | 39.20162 | 23.51484 | 1426 ft | 149 kts | 18° |
| 2026-05-05 14:51 | 39.21135 | 23.51929 | 2021 ft | 151 kts | 17° |
| 2026-05-05 14:51 | 39.22234 | 23.52430 | 2004 ft | 180 kts | 18° |
| 2026-05-05 14:51 | 39.23502 | 23.52647 | 2164 ft | 191 kts | 348° |
| 2026-05-05 14:52 | 39.24751 | 23.51966 | 2364 ft | 200 kts | 333° |
| 2026-05-05 14:52 | 39.26070 | 23.51308 | 2541 ft | 211 kts | 341° |
| 2026-05-05 14:52 | 39.27531 | 23.50725 | 2654 ft | 230 kts | 342° |
| 2026-05-05 14:52 | 39.29133 | 23.50114 | 2809 ft | 251 kts | 342° |
| 2026-05-05 14:53 | 39.30823 | 23.49449 | 3414 ft | 256 kts | 342° |
| 2026-05-05 14:53 | 39.32527 | 23.48758 | 4118 ft | 258 kts | 342° |
| 2026-05-05 14:53 | 39.34244 | 23.48042 | 4792 ft | 261 kts | 341° |
| 2026-05-05 14:53 | 39.35981 | 23.47307 | 5443 ft | 264 kts | 342° |
| 2026-05-05 14:54 | 39.37735 | 23.46557 | 6105 ft | 267 kts | 342° |
| 2026-05-05 14:54 | 39.39481 | 23.45804 | 6737 ft | 269 kts | 342° |
| 2026-05-05 14:54 | 39.41264 | 23.45035 | 7399 ft | 271 kts | 342° |
| 2026-05-05 14:54 | 39.43053 | 23.44260 | 8056 ft | 272 kts | 342° |
| 2026-05-05 14:55 | 39.44856 | 23.43480 | 8719 ft | 274 kts | 342° |
| 2026-05-05 14:55 | 39.46667 | 23.42697 | 9364 ft | 275 kts | 342° |
| 2026-05-05 14:55 | 39.48492 | 23.41907 | 10003 ft | 277 kts | 342° |
| 2026-05-05 14:55 | 39.50366 | 23.41093 | 10265 ft | 293 kts | 342° |
| 2026-05-05 14:56 | 39.52362 | 23.40228 | 10404 ft | 312 kts | 342° |
| 2026-05-05 14:56 | 39.54453 | 23.39320 | 10513 ft | 330 kts | 342° |
| 2026-05-05 14:56 | 39.56666 | 23.38355 | 10861 ft | 339 kts | 341° |
| 2026-05-05 14:56 | 39.58918 | 23.37372 | 11382 ft | 343 kts | 342° |
| 2026-05-05 14:57 | 39.61192 | 23.36381 | 11939 ft | 346 kts | 342° |
| 2026-05-05 14:57 | 39.63485 | 23.35384 | 12516 ft | 349 kts | 342° |
| 2026-05-05 14:57 | 39.65791 | 23.34378 | 13093 ft | 351 kts | 342° |
| 2026-05-05 14:57 | 39.68115 | 23.33364 | 13673 ft | 354 kts | 342° |
| 2026-05-05 14:58 | 39.70460 | 23.32341 | 14194 ft | 356 kts | 342° |
| 2026-05-05 14:58 | 39.72786 | 23.31324 | 14706 ft | 358 kts | 342° |
| 2026-05-05 14:58 | 39.75153 | 23.30288 | 15224 ft | 360 kts | 342° |
| 2026-05-05 14:58 | 39.77532 | 23.29248 | 15740 ft | 362 kts | 342° |
| 2026-05-05 14:59 | 39.79920 | 23.28203 | 16255 ft | 363 kts | 342° |
| 2026-05-05 14:59 | 39.82322 | 23.27151 | 16761 ft | 365 kts | 342° |
| 2026-05-05 14:59 | 39.84733 | 23.26094 | 17252 ft | 367 kts | 342° |
| 2026-05-05 14:59 | 39.87157 | 23.25031 | 17740 ft | 369 kts | 342° |
| 2026-05-05 15:00 | 39.89593 | 23.23963 | 18211 ft | 370 kts | 342° |
| 2026-05-05 15:00 | 39.91212 | 23.23251 | 18495 ft | 372 kts | 342° |
| 2026-05-05 15:00 | 39.94498 | 23.21805 | 19035 ft | 373 kts | 342° |
| 2026-05-05 15:00 | 39.96929 | 23.20732 | 19450 ft | 375 kts | 341° |
| 2026-05-05 15:01 | 39.99404 | 23.19639 | 19858 ft | 376 kts | 341° |
| 2026-05-05 15:01 | 40.01885 | 23.18547 | 20264 ft | 377 kts | 341° |
| 2026-05-05 15:01 | 40.04378 | 23.17447 | 20664 ft | 379 kts | 341° |
| 2026-05-05 15:01 | 40.06880 | 23.16344 | 21064 ft | 380 kts | 341° |
| 2026-05-05 15:02 | 40.09390 | 23.15236 | 21462 ft | 381 kts | 341° |
| 2026-05-05 15:02 | 40.11907 | 23.14122 | 21860 ft | 383 kts | 341° |
| 2026-05-05 15:02 | 40.14433 | 23.13001 | 22257 ft | 384 kts | 341° |
| 2026-05-05 15:02 | 40.16932 | 23.11894 | 22644 ft | 385 kts | 341° |
| 2026-05-05 15:03 | 40.19476 | 23.10770 | 23024 ft | 387 kts | 341° |
| 2026-05-05 15:03 | 40.22036 | 23.09636 | 23334 ft | 390 kts | 341° |
| 2026-05-05 15:03 | 40.24611 | 23.08493 | 23634 ft | 392 kts | 341° |
| 2026-05-05 15:03 | 40.27200 | 23.07342 | 23935 ft | 394 kts | 340° |
| 2026-05-05 15:04 | 40.29797 | 23.06185 | 24264 ft | 395 kts | 340° |
| 2026-05-05 15:04 | 40.32399 | 23.05026 | 24579 ft | 395 kts | 340° |
| 2026-05-05 15:04 | 40.35004 | 23.03868 | 24897 ft | 396 kts | 340° |
| 2026-05-05 15:04 | 40.37618 | 23.02705 | 25208 ft | 397 kts | 340° |
| 2026-05-05 15:05 | 40.42820 | 23.00384 | 25822 ft | 398 kts | 340° |
| 2026-05-05 15:05 | 40.45437 | 22.99169 | 26123 ft | 399 kts | 336° |
| 2026-05-05 15:05 | 40.47917 | 22.97548 | 26424 ft | 399 kts | 331° |
| 2026-05-05 15:06 | 40.50366 | 22.95827 | 26735 ft | 400 kts | 331° |
| 2026-05-05 15:06 | 40.52819 | 22.94107 | 27034 ft | 400 kts | 331° |
| 2026-05-05 15:06 | 40.55278 | 22.92387 | 27316 ft | 401 kts | 331° |
| 2026-05-05 15:06 | 40.57745 | 22.90665 | 27592 ft | 402 kts | 331° |
| 2026-05-05 15:07 | 40.60218 | 22.88942 | 27866 ft | 402 kts | 331° |
| 2026-05-05 15:07 | 40.62658 | 22.87234 | 28119 ft | 403 kts | 331° |
| 2026-05-05 15:07 | 40.65137 | 22.85496 | 28372 ft | 404 kts | 331° |
| 2026-05-05 15:07 | 40.67616 | 22.83749 | 28641 ft | 405 kts | 331° |
| 2026-05-05 15:08 | 40.70101 | 22.81998 | 28904 ft | 406 kts | 331° |
| 2026-05-05 15:08 | 40.72601 | 22.80238 | 29053 ft | 409 kts | 330° |
| 2026-05-05 15:08 | 40.75110 | 22.78470 | 29314 ft | 409 kts | 330° |
| 2026-05-05 15:08 | 40.77616 | 22.76699 | 29668 ft | 406 kts | 330° |
| 2026-05-05 15:09 | 40.80092 | 22.74950 | 30142 ft | 401 kts | 330° |
| 2026-05-05 15:09 | 40.82546 | 22.73218 | 30494 ft | 399 kts | 330° |
| 2026-05-05 15:09 | 40.84959 | 22.71516 | 30790 ft | 398 kts | 330° |
| 2026-05-05 15:09 | 40.87398 | 22.69795 | 31058 ft | 397 kts | 330° |
| 2026-05-05 15:10 | 40.89834 | 22.68077 | 31328 ft | 397 kts | 330° |
| 2026-05-05 15:10 | 40.92267 | 22.66354 | 31590 ft | 397 kts | 330° |
| 2026-05-05 15:10 | 40.94698 | 22.64633 | 31865 ft | 396 kts | 330° |
| 2026-05-05 15:10 | 40.97137 | 22.62904 | 31999 ft | 399 kts | 330° |
| 2026-05-05 15:11 | 40.99591 | 22.61157 | 32161 ft | 401 kts | 330° |
| 2026-05-05 15:11 | 41.02046 | 22.59408 | 32380 ft | 401 kts | 330° |
| 2026-05-05 15:11 | 41.04471 | 22.57678 | 32616 ft | 401 kts | 330° |
| 2026-05-05 15:11 | 41.06926 | 22.55928 | 32867 ft | 401 kts | 330° |
| 2026-05-05 15:12 | 41.09380 | 22.54177 | 33137 ft | 400 kts | 330° |
| 2026-05-05 15:12 | 41.11858 | 22.52500 | 33395 ft | 401 kts | 335° |
| 2026-05-05 15:12 | 41.14504 | 22.51326 | 33637 ft | 403 kts | 344° |
| 2026-05-05 15:12 | 41.17272 | 22.50653 | 33874 ft | 404 kts | 347° |
| 2026-05-05 15:13 | 41.20048 | 22.50032 | 33970 ft | 406 kts | 347° |
| 2026-05-05 15:13 | 41.25610 | 22.48770 | 33997 ft | 405 kts | 347° |
| 2026-05-05 15:14 | 41.31128 | 22.47507 | 34001 ft | 405 kts | 347° |
| 2026-05-05 15:14 | 41.36677 | 22.46234 | 33999 ft | 405 kts | 347° |
| 2026-05-05 15:15 | 41.42234 | 22.44952 | 34006 ft | 406 kts | 347° |
| 2026-05-05 15:15 | 41.47795 | 22.43668 | 34010 ft | 405 kts | 347° |
| 2026-05-05 15:16 | 41.53313 | 22.42394 | 34000 ft | 405 kts | 347° |
| 2026-05-05 15:16 | 41.58866 | 22.41106 | 34001 ft | 405 kts | 347° |
| 2026-05-05 15:17 | 41.64427 | 22.39819 | 34001 ft | 406 kts | 347° |
| 2026-05-05 15:17 | 41.69998 | 22.38519 | 34003 ft | 407 kts | 347° |
| 2026-05-05 15:18 | 41.74638 | 22.37442 | 34002 ft | 407 kts | 347° |
| 2026-05-05 15:18 | 41.81134 | 22.35939 | 34010 ft | 408 kts | 347° |
| 2026-05-05 15:19 | 41.86734 | 22.34628 | 34014 ft | 409 kts | 347° |
| 2026-05-05 15:19 | 41.92340 | 22.33317 | 34015 ft | 409 kts | 347° |
| 2026-05-05 15:20 | 41.97007 | 22.32228 | 34013 ft | 410 kts | 347° |
| 2026-05-05 15:20 | 42.03540 | 22.30699 | 34016 ft | 410 kts | 347° |
| 2026-05-05 15:21 | 42.09170 | 22.29378 | 34015 ft | 411 kts | 347° |
| 2026-05-05 15:21 | 42.13854 | 22.28283 | 34017 ft | 411 kts | 347° |
| 2026-05-05 15:22 | 42.19490 | 22.26954 | 34020 ft | 411 kts | 347° |
| 2026-05-05 15:22 | 42.26045 | 22.25402 | 34012 ft | 412 kts | 347° |
| 2026-05-05 15:23 | 42.31660 | 22.23870 | 34012 ft | 410 kts | 340° |
| 2026-05-05 15:23 | 42.36131 | 22.21733 | 34018 ft | 410 kts | 338° |
| 2026-05-05 15:24 | 42.41515 | 22.19151 | 34011 ft | 410 kts | 339° |
| 2026-05-05 15:24 | 42.47780 | 22.16157 | 34005 ft | 411 kts | 339° |
| 2026-05-05 15:25 | 42.52303 | 22.13991 | 34001 ft | 412 kts | 339° |
| 2026-05-05 15:25 | 42.57668 | 22.11403 | 33993 ft | 412 kts | 338° |
| 2026-05-05 15:26 | 42.63077 | 22.08790 | 34000 ft | 413 kts | 338° |
| 2026-05-05 15:26 | 42.68491 | 22.06175 | 33990 ft | 413 kts | 338° |
| 2026-05-05 15:27 | 42.73902 | 22.03564 | 33991 ft | 413 kts | 338° |
| 2026-05-05 15:27 | 42.79280 | 22.00962 | 33994 ft | 413 kts | 339° |
| 2026-05-05 15:28 | 42.84693 | 21.98335 | 33996 ft | 413 kts | 339° |
| 2026-05-05 15:28 | 42.90114 | 21.95695 | 33987 ft | 414 kts | 338° |
| 2026-05-05 15:29 | 42.95534 | 21.93047 | 33986 ft | 414 kts | 338° |
| 2026-05-05 15:29 | 43.00924 | 21.90410 | 33981 ft | 414 kts | 338° |
| 2026-05-05 15:30 | 43.06349 | 21.87757 | 33985 ft | 414 kts | 338° |
| 2026-05-05 15:30 | 43.11780 | 21.85102 | 33973 ft | 415 kts | 338° |
| 2026-05-05 15:31 | 43.17222 | 21.82429 | 33966 ft | 415 kts | 338° |
| 2026-05-05 15:31 | 43.22629 | 21.79774 | 33969 ft | 416 kts | 338° |
| 2026-05-05 15:32 | 43.28078 | 21.77089 | 33976 ft | 416 kts | 338° |
| 2026-05-05 15:32 | 43.33528 | 21.74390 | 33975 ft | 417 kts | 338° |
| 2026-05-05 15:33 | 43.38982 | 21.71697 | 33976 ft | 417 kts | 338° |
| 2026-05-05 15:33 | 43.44440 | 21.69000 | 33969 ft | 417 kts | 338° |
| 2026-05-05 15:34 | 43.49855 | 21.66311 | 33976 ft | 416 kts | 338° |
| 2026-05-05 15:34 | 43.55307 | 21.63583 | 33974 ft | 417 kts | 338° |
| 2026-05-05 15:35 | 43.60767 | 21.60850 | 33962 ft | 418 kts | 338° |
| 2026-05-05 15:35 | 43.66234 | 21.58124 | 33968 ft | 418 kts | 338° |
| 2026-05-05 15:36 | 43.71673 | 21.55406 | 33983 ft | 419 kts | 338° |
| 2026-05-05 15:36 | 43.77150 | 21.52655 | 33972 ft | 419 kts | 338° |
| 2026-05-05 15:37 | 43.82631 | 21.49901 | 33973 ft | 419 kts | 338° |
| 2026-05-05 15:37 | 43.88112 | 21.47146 | 33973 ft | 419 kts | 338° |
| 2026-05-05 15:38 | 43.93595 | 21.44377 | 33966 ft | 420 kts | 338° |
| 2026-05-05 15:38 | 43.99050 | 21.41620 | 33965 ft | 420 kts | 338° |
| 2026-05-05 15:39 | 44.04545 | 21.38839 | 33960 ft | 421 kts | 338° |
| 2026-05-05 15:39 | 44.10046 | 21.36051 | 33959 ft | 421 kts | 338° |
| 2026-05-05 15:40 | 44.15546 | 21.33251 | 33973 ft | 421 kts | 338° |
| 2026-05-05 15:40 | 44.21025 | 21.30463 | 33970 ft | 422 kts | 338° |
| 2026-05-05 15:41 | 44.26549 | 21.27641 | 33964 ft | 423 kts | 338° |
| 2026-05-05 15:41 | 44.32071 | 21.24808 | 33973 ft | 423 kts | 338° |
| 2026-05-05 15:42 | 44.37526 | 21.21734 | 33970 ft | 422 kts | 335° |
| 2026-05-05 15:42 | 44.42856 | 21.18415 | 33963 ft | 423 kts | 334° |
| 2026-05-05 15:43 | 44.48226 | 21.15057 | 33951 ft | 423 kts | 335° |
| 2026-05-05 15:43 | 44.53621 | 21.11754 | 33950 ft | 423 kts | 335° |
| 2026-05-05 15:44 | 44.59018 | 21.08475 | 33956 ft | 423 kts | 335° |
| 2026-05-05 15:44 | 44.64379 | 21.05208 | 33948 ft | 423 kts | 335° |
| 2026-05-05 15:45 | 44.69786 | 21.01897 | 33950 ft | 424 kts | 335° |
| 2026-05-05 15:45 | 44.75195 | 20.98581 | 33950 ft | 425 kts | 335° |
| 2026-05-05 15:46 | 44.80612 | 20.95250 | 33953 ft | 425 kts | 335° |
| 2026-05-05 15:46 | 44.85990 | 20.91934 | 33949 ft | 425 kts | 334° |
| 2026-05-05 15:47 | 44.91406 | 20.88585 | 33953 ft | 425 kts | 334° |
| 2026-05-05 15:47 | 44.96816 | 20.85231 | 33957 ft | 425 kts | 334° |
| 2026-05-05 15:48 | 45.02227 | 20.81876 | 33955 ft | 425 kts | 334° |
| 2026-05-05 15:48 | 45.07607 | 20.78539 | 33961 ft | 425 kts | 334° |
| 2026-05-05 15:49 | 45.13028 | 20.75160 | 33955 ft | 426 kts | 334° |
| 2026-05-05 15:49 | 45.18453 | 20.71777 | 33955 ft | 426 kts | 334° |
| 2026-05-05 15:50 | 45.23879 | 20.68375 | 33961 ft | 427 kts | 334° |
| 2026-05-05 15:50 | 45.29276 | 20.65000 | 33965 ft | 427 kts | 334° |
| 2026-05-05 15:51 | 45.34723 | 20.61591 | 33956 ft | 428 kts | 334° |
| 2026-05-05 15:51 | 45.40159 | 20.58161 | 33948 ft | 428 kts | 334° |
| 2026-05-05 15:52 | 45.45599 | 20.54724 | 33953 ft | 428 kts | 334° |
| 2026-05-05 15:52 | 45.50997 | 20.51314 | 33954 ft | 427 kts | 334° |
| 2026-05-05 15:53 | 45.56428 | 20.47879 | 33953 ft | 427 kts | 334° |
| 2026-05-05 15:53 | 45.61869 | 20.44430 | 33947 ft | 428 kts | 334° |
| 2026-05-05 15:54 | 45.67301 | 20.40970 | 33940 ft | 428 kts | 334° |
| 2026-05-05 15:54 | 45.72703 | 20.37514 | 33944 ft | 428 kts | 333° |
| 2026-05-05 15:55 | 45.78141 | 20.34038 | 33945 ft | 428 kts | 334° |
| 2026-05-05 15:55 | 45.83588 | 20.30562 | 33945 ft | 429 kts | 334° |
| 2026-05-05 15:56 | 45.89035 | 20.27081 | 33943 ft | 429 kts | 334° |
| 2026-05-05 15:56 | 45.94480 | 20.23584 | 33943 ft | 429 kts | 334° |
| 2026-05-05 15:57 | 45.99886 | 20.20088 | 33941 ft | 429 kts | 334° |
| 2026-05-05 15:57 | 46.05330 | 20.16563 | 33941 ft | 429 kts | 333° |
| 2026-05-05 15:58 | 46.10783 | 20.13039 | 33947 ft | 429 kts | 333° |
| 2026-05-05 15:58 | 46.16237 | 20.09528 | 33946 ft | 430 kts | 336° |
| 2026-05-05 15:59 | 46.21901 | 20.06714 | 33947 ft | 431 kts | 339° |
| 2026-05-05 15:59 | 46.27549 | 20.03954 | 33940 ft | 432 kts | 339° |
| 2026-05-05 16:00 | 46.33240 | 20.01165 | 33924 ft | 432 kts | 339° |
| 2026-05-05 16:00 | 46.38942 | 19.98360 | 33932 ft | 433 kts | 339° |
| 2026-05-05 16:01 | 46.44646 | 19.95546 | 33933 ft | 433 kts | 339° |
| 2026-05-05 16:01 | 46.50320 | 19.92758 | 33923 ft | 434 kts | 339° |
| 2026-05-05 16:02 | 46.56040 | 19.89923 | 33920 ft | 435 kts | 339° |
| 2026-05-05 16:02 | 46.61770 | 19.87065 | 33926 ft | 436 kts | 339° |
| 2026-05-05 16:03 | 46.67509 | 19.84222 | 33930 ft | 436 kts | 339° |
| 2026-05-05 16:03 | 46.73217 | 19.81391 | 33939 ft | 436 kts | 339° |
| 2026-05-05 16:04 | 46.78964 | 19.78522 | 33944 ft | 437 kts | 339° |
| 2026-05-05 16:04 | 46.84713 | 19.75647 | 33949 ft | 437 kts | 339° |
| 2026-05-05 16:05 | 46.90468 | 19.72757 | 33965 ft | 437 kts | 339° |
| 2026-05-05 16:05 | 46.96183 | 19.69889 | 33942 ft | 438 kts | 339° |
| 2026-05-05 16:06 | 47.01945 | 19.66977 | 33921 ft | 439 kts | 339° |
| 2026-05-05 16:06 | 47.07717 | 19.64060 | 33939 ft | 439 kts | 339° |
| 2026-05-05 16:07 | 47.13485 | 19.61148 | 33939 ft | 438 kts | 339° |
| 2026-05-05 16:07 | 47.19207 | 19.58250 | 33939 ft | 438 kts | 338° |
| 2026-05-05 16:08 | 47.24961 | 19.55328 | 33934 ft | 437 kts | 338° |
| 2026-05-05 16:08 | 47.30710 | 19.52392 | 33934 ft | 437 kts | 338° |
| 2026-05-05 16:09 | 47.36461 | 19.49456 | 33930 ft | 437 kts | 338° |
| 2026-05-05 16:09 | 47.42213 | 19.46520 | 33934 ft | 437 kts | 338° |
| 2026-05-05 16:10 | 47.47919 | 19.43594 | 33928 ft | 437 kts | 338° |
| 2026-05-05 16:10 | 47.53667 | 19.40635 | 33924 ft | 437 kts | 338° |
| 2026-05-05 16:11 | 47.59414 | 19.37667 | 33922 ft | 437 kts | 338° |
| 2026-05-05 16:12 | 47.70879 | 19.31746 | 33911 ft | 438 kts | 338° |
| 2026-05-05 16:13 | 47.85290 | 19.24252 | 33917 ft | 439 kts | 338° |
| 2026-05-05 16:13 | 47.91049 | 19.21238 | 33921 ft | 439 kts | 338° |
| 2026-05-05 16:14 | 48.02537 | 19.15219 | 33904 ft | 439 kts | 338° |
| 2026-05-05 16:15 | 48.14099 | 19.09245 | 33910 ft | 440 kts | 339° |
| 2026-05-05 16:16 | 48.25697 | 19.03484 | 33900 ft | 441 kts | 339° |
| 2026-05-05 16:17 | 48.34417 | 18.99073 | 33893 ft | 441 kts | 339° |
| 2026-05-05 16:18 | 48.43100 | 18.94639 | 33890 ft | 442 kts | 338° |
| 2026-05-05 16:19 | 48.51836 | 18.90207 | 33902 ft | 442 kts | 338° |
| 2026-05-05 16:19 | 48.60567 | 18.85742 | 33895 ft | 441 kts | 338° |
| 2026-05-05 16:20 | 48.72154 | 18.79791 | 33891 ft | 442 kts | 339° |
| 2026-05-05 16:22 | 48.86648 | 18.72300 | 33872 ft | 441 kts | 339° |
| 2026-05-05 16:23 | 48.98286 | 18.66286 | 33862 ft | 442 kts | 338° |
| 2026-05-05 16:23 | 49.07018 | 18.61722 | 33851 ft | 443 kts | 338° |
| 2026-05-05 16:24 | 49.12805 | 18.58698 | 33851 ft | 443 kts | 338° |
| 2026-05-05 16:25 | 49.21544 | 18.54123 | 33844 ft | 443 kts | 338° |
| 2026-05-05 16:25 | 49.30277 | 18.49524 | 33864 ft | 443 kts | 338° |
| 2026-05-05 16:26 | 49.41751 | 18.42972 | 33850 ft | 439 kts | 332° |
| 2026-05-05 16:27 | 49.47275 | 18.38948 | 33840 ft | 439 kts | 332° |
| 2026-05-05 16:27 | 49.52804 | 18.34933 | 33811 ft | 439 kts | 331° |
| 2026-05-05 16:28 | 49.58326 | 18.30899 | 33805 ft | 439 kts | 330° |
| 2026-05-05 16:28 | 49.63810 | 18.26873 | 33799 ft | 439 kts | 330° |
| 2026-05-05 16:29 | 49.69329 | 18.22816 | 33801 ft | 439 kts | 332° |
| 2026-05-05 16:29 | 49.74845 | 18.18762 | 33802 ft | 439 kts | 331° |
| 2026-05-05 16:30 | 49.80353 | 18.14692 | 33798 ft | 439 kts | 331° |
| 2026-05-05 16:30 | 49.85824 | 18.10634 | 33799 ft | 439 kts | 331° |
| 2026-05-05 16:31 | 49.91327 | 18.06539 | 33806 ft | 439 kts | 331° |
| 2026-05-05 16:31 | 49.96997 | 18.02998 | 33813 ft | 440 kts | 336° |
| 2026-05-05 16:32 | 50.02693 | 17.99731 | 33814 ft | 439 kts | 336° |
| 2026-05-05 16:32 | 50.08286 | 17.96002 | 33806 ft | 437 kts | 333° |
| 2026-05-05 16:33 | 50.13753 | 17.91886 | 33797 ft | 436 kts | 331° |
| 2026-05-05 16:33 | 50.19209 | 17.87739 | 33798 ft | 436 kts | 332° |
| 2026-05-05 16:34 | 50.24697 | 17.83687 | 33791 ft | 436 kts | 332° |
| 2026-05-05 16:34 | 50.30165 | 17.79712 | 33790 ft | 436 kts | 332° |
| 2026-05-05 16:35 | 50.35667 | 17.75694 | 33792 ft | 436 kts | 332° |
| 2026-05-05 16:35 | 50.41157 | 17.71655 | 33790 ft | 436 kts | 332° |
| 2026-05-05 16:36 | 50.46637 | 17.67592 | 33786 ft | 435 kts | 332° |
| 2026-05-05 16:36 | 50.52075 | 17.63550 | 33784 ft | 435 kts | 332° |
| 2026-05-05 16:37 | 50.57545 | 17.59485 | 33777 ft | 435 kts | 332° |
| 2026-05-05 16:37 | 50.63010 | 17.55413 | 33785 ft | 434 kts | 332° |
| 2026-05-05 16:38 | 50.68474 | 17.51327 | 33789 ft | 434 kts | 332° |
| 2026-05-05 16:38 | 50.73936 | 17.47250 | 33802 ft | 434 kts | 332° |
| 2026-05-05 16:39 | 50.79353 | 17.43186 | 33776 ft | 434 kts | 332° |
| 2026-05-05 16:39 | 50.84795 | 17.39086 | 33774 ft | 433 kts | 331° |
| 2026-05-05 16:40 | 50.90238 | 17.34968 | 33781 ft | 433 kts | 331° |
| 2026-05-05 16:40 | 50.95677 | 17.30846 | 33774 ft | 433 kts | 331° |
| 2026-05-05 16:41 | 51.01079 | 17.26749 | 33776 ft | 433 kts | 331° |
| 2026-05-05 16:41 | 51.06510 | 17.22622 | 33788 ft | 432 kts | 331° |
| 2026-05-05 16:42 | 51.11931 | 17.18483 | 33782 ft | 432 kts | 331° |
| 2026-05-05 16:42 | 51.17343 | 17.14346 | 33777 ft | 431 kts | 331° |
| 2026-05-05 16:43 | 51.22714 | 17.10236 | 33774 ft | 431 kts | 331° |
| 2026-05-05 16:43 | 51.28119 | 17.06086 | 33786 ft | 431 kts | 331° |
| 2026-05-05 16:44 | 51.33513 | 17.01926 | 33812 ft | 430 kts | 331° |
| 2026-05-05 16:44 | 51.38902 | 16.97761 | 33816 ft | 430 kts | 330° |
| 2026-05-05 16:45 | 51.44249 | 16.93618 | 33808 ft | 430 kts | 330° |
| 2026-05-05 16:45 | 51.49628 | 16.89431 | 33813 ft | 430 kts | 330° |
| 2026-05-05 16:46 | 51.55007 | 16.85229 | 33819 ft | 430 kts | 329° |
| 2026-05-05 16:46 | 51.60388 | 16.81030 | 33825 ft | 430 kts | 330° |
| 2026-05-05 16:47 | 51.65767 | 16.76835 | 33820 ft | 430 kts | 330° |
| 2026-05-05 16:47 | 51.71104 | 16.72638 | 33818 ft | 429 kts | 329° |
| 2026-05-05 16:48 | 51.76476 | 16.68406 | 33826 ft | 430 kts | 329° |
| 2026-05-05 16:48 | 51.81858 | 16.64167 | 33816 ft | 431 kts | 329° |
| 2026-05-05 16:49 | 51.87208 | 16.59936 | 33830 ft | 431 kts | 329° |
| 2026-05-05 16:49 | 51.92588 | 16.55660 | 33842 ft | 430 kts | 329° |
| 2026-05-05 16:50 | 51.97964 | 16.51392 | 33842 ft | 430 kts | 329° |
| 2026-05-05 16:50 | 52.03330 | 16.47105 | 33844 ft | 430 kts | 329° |
| 2026-05-05 16:51 | 52.08695 | 16.42800 | 33845 ft | 430 kts | 329° |
| 2026-05-05 16:51 | 52.14030 | 16.38528 | 33855 ft | 431 kts | 328° |
| 2026-05-05 16:52 | 52.19417 | 16.34203 | 33834 ft | 432 kts | 328° |
| 2026-05-05 16:52 | 52.24808 | 16.29857 | 33838 ft | 433 kts | 328° |
| 2026-05-05 16:53 | 52.30204 | 16.25488 | 33839 ft | 433 kts | 328° |
| 2026-05-05 16:53 | 52.35566 | 16.21136 | 33841 ft | 433 kts | 328° |
| 2026-05-05 16:54 | 52.40965 | 16.16748 | 33842 ft | 433 kts | 328° |
| 2026-05-05 16:54 | 52.46357 | 16.12353 | 33855 ft | 433 kts | 328° |
| 2026-05-05 16:55 | 52.51750 | 16.07946 | 33866 ft | 433 kts | 328° |
| 2026-05-05 16:55 | 52.57097 | 16.03559 | 33860 ft | 432 kts | 328° |
| 2026-05-05 16:56 | 52.62480 | 15.99135 | 33858 ft | 432 kts | 328° |
| 2026-05-05 16:56 | 52.67849 | 15.94704 | 33882 ft | 432 kts | 327° |
| 2026-05-05 16:57 | 52.73209 | 15.90274 | 33879 ft | 430 kts | 327° |
| 2026-05-05 16:57 | 52.78523 | 15.85877 | 33875 ft | 430 kts | 327° |
| 2026-05-05 16:58 | 52.83876 | 15.81482 | 33893 ft | 430 kts | 328° |
| 2026-05-05 16:58 | 52.89341 | 15.77378 | 33887 ft | 432 kts | 329° |
| 2026-05-05 16:59 | 52.94848 | 15.73383 | 33873 ft | 432 kts | 329° |
| 2026-05-05 16:59 | 53.00293 | 15.69353 | 33888 ft | 430 kts | 328° |
| 2026-05-05 17:00 | 53.05733 | 15.65235 | 33890 ft | 429 kts | 328° |
| 2026-05-05 17:00 | 53.11152 | 15.61110 | 33889 ft | 428 kts | 328° |
| 2026-05-05 17:01 | 53.16569 | 15.56993 | 33888 ft | 428 kts | 328° |
| 2026-05-05 17:01 | 53.21976 | 15.52874 | 33879 ft | 427 kts | 328° |
| 2026-05-05 17:02 | 53.27344 | 15.48785 | 33915 ft | 427 kts | 327° |
| 2026-05-05 17:02 | 53.32741 | 15.44662 | 33903 ft | 426 kts | 327° |
| 2026-05-05 17:03 | 53.38133 | 15.40528 | 33901 ft | 426 kts | 327° |
| 2026-05-05 17:03 | 53.43524 | 15.36382 | 33890 ft | 426 kts | 327° |
| 2026-05-05 17:04 | 53.49037 | 15.32774 | 33886 ft | 437 kts | 339° |
| 2026-05-05 17:04 | 53.55018 | 15.30698 | 33915 ft | 439 kts | 340° |
| 2026-05-05 17:05 | 53.61000 | 15.28602 | 33913 ft | 439 kts | 340° |
| 2026-05-05 17:05 | 53.66977 | 15.26507 | 33910 ft | 439 kts | 340° |
| 2026-05-05 17:06 | 53.72919 | 15.24441 | 33908 ft | 439 kts | 340° |
| 2026-05-05 17:06 | 53.78901 | 15.22351 | 33941 ft | 439 kts | 340° |
| 2026-05-05 17:07 | 53.84886 | 15.20244 | 33919 ft | 440 kts | 339° |
| 2026-05-05 17:07 | 53.90877 | 15.18131 | 33916 ft | 440 kts | 339° |
| 2026-05-05 17:08 | 53.96831 | 15.16037 | 33916 ft | 440 kts | 339° |
| 2026-05-05 17:08 | 54.02830 | 15.13916 | 33913 ft | 440 kts | 339° |
| 2026-05-05 17:09 | 54.08826 | 15.11794 | 33942 ft | 440 kts | 339° |
| 2026-05-05 17:09 | 54.14821 | 15.09664 | 33935 ft | 440 kts | 339° |
| 2026-05-05 17:10 | 54.20767 | 15.07542 | 33929 ft | 439 kts | 339° |
| 2026-05-05 17:10 | 54.26752 | 15.05397 | 33928 ft | 439 kts | 339° |
| 2026-05-05 17:11 | 54.32731 | 15.03234 | 33956 ft | 439 kts | 340° |
| 2026-05-05 17:11 | 54.38706 | 15.01058 | 33944 ft | 439 kts | 340° |
| 2026-05-05 17:12 | 54.44636 | 14.98896 | 33949 ft | 439 kts | 340° |
| 2026-05-05 17:12 | 54.50606 | 14.96727 | 33941 ft | 438 kts | 340° |
| 2026-05-05 17:13 | 54.56577 | 14.94558 | 33696 ft | 439 kts | 340° |
| 2026-05-05 17:13 | 54.59597 | 14.93450 | 32511 ft | 450 kts | 340° |
| 2026-05-05 17:13 | 54.62670 | 14.92316 | 31799 ft | 451 kts | 340° |
| 2026-05-05 17:14 | 54.65731 | 14.91198 | 31253 ft | 448 kts | 340° |
| 2026-05-05 17:14 | 54.68766 | 14.90095 | 30726 ft | 444 kts | 340° |
| 2026-05-05 17:14 | 54.71781 | 14.88995 | 30183 ft | 441 kts | 340° |
| 2026-05-05 17:14 | 54.74732 | 14.87918 | 29621 ft | 438 kts | 339° |
| 2026-05-05 17:15 | 54.77695 | 14.86833 | 29097 ft | 433 kts | 340° |
| 2026-05-05 17:15 | 54.80623 | 14.85758 | 28584 ft | 428 kts | 340° |
| 2026-05-05 17:15 | 54.83512 | 14.84687 | 28065 ft | 423 kts | 339° |
| 2026-05-05 17:15 | 54.86372 | 14.83608 | 27570 ft | 418 kts | 339° |
| 2026-05-05 17:16 | 54.89198 | 14.82528 | 27083 ft | 414 kts | 341° |
| 2026-05-05 17:16 | 54.91999 | 14.81450 | 26589 ft | 410 kts | 341° |
| 2026-05-05 17:16 | 54.94737 | 14.80395 | 26107 ft | 406 kts | 341° |
| 2026-05-05 17:16 | 54.97485 | 14.79341 | 25644 ft | 402 kts | 341° |
| 2026-05-05 17:17 | 55.00200 | 14.78300 | 25197 ft | 398 kts | 341° |
| 2026-05-05 17:17 | 55.02813 | 14.76947 | 24756 ft | 385 kts | 330° |
| 2026-05-05 17:17 | 55.05127 | 14.74761 | 24333 ft | 373 kts | 319° |
| 2026-05-05 17:17 | 55.07078 | 14.71899 | 23916 ft | 362 kts | 309° |
| 2026-05-05 17:18 | 55.08629 | 14.68531 | 23515 ft | 352 kts | 298° |
| 2026-05-05 17:18 | 55.09798 | 14.64837 | 23065 ft | 345 kts | 293° |
| 2026-05-05 17:18 | 55.10884 | 14.61143 | 22666 ft | 339 kts | 293° |
| 2026-05-05 17:18 | 55.11940 | 14.57554 | 22283 ft | 334 kts | 293° |
| 2026-05-05 17:19 | 55.12993 | 14.53972 | 21892 ft | 329 kts | 293° |
| 2026-05-05 17:19 | 55.14035 | 14.50417 | 21494 ft | 332 kts | 293° |
| 2026-05-05 17:19 | 55.15092 | 14.46790 | 21104 ft | 337 kts | 293° |
| 2026-05-05 17:19 | 55.16152 | 14.43139 | 20693 ft | 336 kts | 293° |
| 2026-05-05 17:20 | 55.17208 | 14.39500 | 20304 ft | 335 kts | 293° |
| 2026-05-05 17:20 | 55.18262 | 14.35872 | 19890 ft | 333 kts | 293° |
| 2026-05-05 17:20 | 55.19312 | 14.32267 | 19484 ft | 332 kts | 293° |
| 2026-05-05 17:20 | 55.20340 | 14.28729 | 19088 ft | 330 kts | 293° |
| 2026-05-05 17:21 | 55.21375 | 14.25153 | 18682 ft | 328 kts | 293° |
| 2026-05-05 17:21 | 55.22401 | 14.21594 | 18284 ft | 327 kts | 293° |
| 2026-05-05 17:21 | 55.23419 | 14.18050 | 17850 ft | 325 kts | 293° |
| 2026-05-05 17:22 | 55.25123 | 14.10844 | 17144 ft | 316 kts | 275° |
| 2026-05-05 17:22 | 55.25322 | 14.06930 | 16890 ft | 335 kts | 273° |
| 2026-05-05 17:22 | 55.25503 | 14.02767 | 16622 ft | 347 kts | 272° |
| 2026-05-05 17:22 | 55.25680 | 13.98595 | 16360 ft | 348 kts | 272° |
| 2026-05-05 17:23 | 55.25858 | 13.94363 | 16111 ft | 348 kts | 272° |
| 2026-05-05 17:23 | 55.26033 | 13.90137 | 15777 ft | 347 kts | 272° |
| 2026-05-05 17:23 | 55.26208 | 13.85938 | 15370 ft | 344 kts | 272° |
| 2026-05-05 17:23 | 55.26379 | 13.81759 | 14967 ft | 343 kts | 272° |
| 2026-05-05 17:24 | 55.26547 | 13.77603 | 14562 ft | 341 kts | 272° |
| 2026-05-05 17:24 | 55.26712 | 13.73472 | 14163 ft | 339 kts | 272° |
| 2026-05-05 17:24 | 55.26876 | 13.69359 | 13759 ft | 337 kts | 273° |
| 2026-05-05 17:24 | 55.27037 | 13.65317 | 13325 ft | 336 kts | 273° |
| 2026-05-05 17:25 | 55.27196 | 13.61242 | 12921 ft | 335 kts | 273° |
| 2026-05-05 17:25 | 55.27303 | 13.58496 | 12646 ft | 334 kts | 273° |
| 2026-05-05 17:25 | 55.27509 | 13.53134 | 12113 ft | 332 kts | 273° |
| 2026-05-05 17:25 | 55.27660 | 13.49104 | 11703 ft | 330 kts | 273° |
| 2026-05-05 17:26 | 55.27808 | 13.45096 | 11295 ft | 329 kts | 273° |
| 2026-05-05 17:26 | 55.27956 | 13.41098 | 10881 ft | 328 kts | 273° |
| 2026-05-05 17:26 | 55.28106 | 13.37124 | 10509 ft | 324 kts | 273° |
| 2026-05-05 17:26 | 55.28249 | 13.33312 | 10360 ft | 311 kts | 273° |
| 2026-05-05 17:27 | 55.28385 | 13.29663 | 10217 ft | 287 kts | 273° |
| 2026-05-05 17:27 | 55.28508 | 13.26274 | 9755 ft | 273 kts | 273° |
| 2026-05-05 17:27 | 55.28623 | 13.22977 | 9467 ft | 268 kts | 273° |
| 2026-05-05 17:27 | 55.28736 | 13.19701 | 9226 ft | 269 kts | 273° |
| 2026-05-05 17:28 | 55.28850 | 13.16425 | 8876 ft | 268 kts | 273° |
| 2026-05-05 17:28 | 55.28964 | 13.13161 | 8512 ft | 268 kts | 274° |
| 2026-05-05 17:28 | 55.29079 | 13.09899 | 8156 ft | 267 kts | 274° |
| 2026-05-05 17:28 | 55.29193 | 13.06650 | 7789 ft | 267 kts | 274° |
| 2026-05-05 17:29 | 55.29302 | 13.03436 | 7433 ft | 267 kts | 274° |
| 2026-05-05 17:29 | 55.29409 | 13.00199 | 7068 ft | 266 kts | 274° |
| 2026-05-05 17:29 | 55.29514 | 12.96958 | 6709 ft | 266 kts | 274° |
| 2026-05-05 17:29 | 55.29619 | 12.93720 | 6344 ft | 266 kts | 275° |
| 2026-05-05 17:30 | 55.29913 | 12.90543 | 5964 ft | 263 kts | 290° |
| 2026-05-05 17:30 | 55.30713 | 12.87685 | 5786 ft | 261 kts | 306° |
| 2026-05-05 17:30 | 55.31806 | 12.85127 | 5729 ft | 263 kts | 308° |
| 2026-05-05 17:30 | 55.32905 | 12.82555 | 5667 ft | 263 kts | 308° |
| 2026-05-05 17:31 | 55.33879 | 12.79840 | 5586 ft | 266 kts | 294° |
| 2026-05-05 17:31 | 55.34345 | 12.76733 | 5386 ft | 266 kts | 284° |
| 2026-05-05 17:31 | 55.34713 | 12.73535 | 5323 ft | 268 kts | 283° |
| 2026-05-05 17:31 | 55.35074 | 12.70324 | 5265 ft | 268 kts | 282° |
| 2026-05-05 17:32 | 55.35432 | 12.67111 | 5204 ft | 268 kts | 283° |
| 2026-05-05 17:32 | 55.35788 | 12.63894 | 5144 ft | 268 kts | 283° |
| 2026-05-05 17:32 | 55.36143 | 12.60692 | 5081 ft | 262 kts | 282° |
| 2026-05-05 17:32 | 55.36484 | 12.57619 | 4937 ft | 252 kts | 283° |
| 2026-05-05 17:33 | 55.36819 | 12.54616 | 4656 ft | 249 kts | 283° |
| 2026-05-05 17:33 | 55.37165 | 12.51655 | 4325 ft | 244 kts | 288° |
| 2026-05-05 17:33 | 55.37880 | 12.49092 | 4050 ft | 233 kts | 309° |
| 2026-05-05 17:33 | 55.39047 | 12.47219 | 3829 ft | 225 kts | 330° |
| 2026-05-05 17:34 | 55.40454 | 12.46050 | 3641 ft | 223 kts | 338° |
| 2026-05-05 17:34 | 55.41867 | 12.44944 | 3453 ft | 221 kts | 337° |
| 2026-05-05 17:34 | 55.43257 | 12.43842 | 3252 ft | 215 kts | 337° |
| 2026-05-05 17:34 | 55.44589 | 12.42779 | 3066 ft | 206 kts | 337° |
| 2026-05-05 17:35 | 55.45929 | 12.42061 | 2884 ft | 199 kts | 357° |
| 2026-05-05 17:35 | 55.47280 | 12.42403 | 2725 ft | 197 kts | 21° |
| 2026-05-05 17:35 | 55.48405 | 12.43710 | 2569 ft | 198 kts | 40° |
| 2026-05-05 17:35 | 55.49439 | 12.45303 | 2508 ft | 198 kts | 39° |
| 2026-05-05 17:36 | 55.50477 | 12.46899 | 2329 ft | 197 kts | 39° |
| 2026-05-05 17:36 | 55.51515 | 12.48493 | 2076 ft | 199 kts | 39° |
| 2026-05-05 17:36 | 55.52562 | 12.50101 | 1836 ft | 196 kts | 40° |
| 2026-05-05 17:36 | 55.53537 | 12.51602 | 1563 ft | 175 kts | 39° |
| 2026-05-05 17:37 | 55.54405 | 12.52937 | 1342 ft | 158 kts | 40° |
| 2026-05-05 17:37 | 55.54941 | 12.53762 | 1193 ft | 151 kts | 39° |
| 2026-05-05 17:37 | 55.55975 | 12.55351 | 915 ft | 148 kts | 39° |
| 2026-05-05 17:37 | 55.56752 | 12.56546 | 683 ft | 149 kts | 39° |
| 2026-05-05 17:38 | 55.57521 | 12.57737 | 477 ft | 146 kts | 37° |
| 2026-05-05 17:38 | 55.58286 | 12.58915 | 300 ft | 146 kts | 38° |
| 2026-05-05 17:38 | 55.59051 | 12.60089 | 117 ft | 144 kts | 37° |
| 2026-05-05 17:38 | 55.59778 | 12.61211 | 31 ft | 130 kts | 37° |
| 2026-05-05 17:39 | 55.60348 | 12.62088 | 23 ft | 83 kts | 41° |
| 2026-05-05 17:39 | 55.60676 | 12.62596 | 28 ft | 53 kts | 41° |
| 2026-05-05 17:39 | 55.60930 | 12.62860 | 25 ft | 37 kts | 13° |
| 2026-05-05 17:39 | 55.61146 | 12.62954 | 25 ft | 29 kts | 30° |
| 2026-05-05 17:40 | 55.61296 | 12.63176 | 24 ft | 28 kts | 41° |
| 2026-05-05 17:40 | 55.61443 | 12.63403 | 24 ft | 28 kts | 41° |
| 2026-05-05 17:40 | 55.61587 | 12.63628 | 24 ft | 27 kts | 41° |
| 2026-05-05 17:40 | 55.61729 | 12.63846 | 24 ft | 27 kts | 41° |
| 2026-05-05 17:41 | 55.61868 | 12.64061 | 24 ft | 26 kts | 39° |
| 2026-05-05 17:41 | 55.62030 | 12.64200 | 26 ft | 26 kts | 24° |
| 2026-05-05 17:41 | 55.62192 | 12.64336 | 22 ft | 24 kts | 27° |
| 2026-05-05 17:41 | 55.62285 | 12.64272 | 21 ft | 17 kts | 306° |
| 2026-05-05 17:42 | 55.62378 | 12.64023 | 23 ft | 28 kts | 303° |
| 2026-05-05 17:42 | 55.62496 | 12.63793 | 23 ft | 25 kts | 334° |
| 2026-05-05 17:42 | 55.62656 | 12.63818 | 25 ft | 23 kts | 32° |
| 2026-05-05 17:42 | 55.62747 | 12.63923 | 24 ft | 13 kts | 33° |
| 2026-05-05 17:43 | 55.62821 | 12.63939 | 26 ft | 11 kts | 326° |
| 2026-05-05 17:43 | 55.62848 | 12.63821 | 24 ft | 10 kts | 283° |
| 2026-05-05 17:43 | 55.62862 | 12.63704 | 24 ft | 9 kts | 276° |
| 2026-05-05 17:43 | 55.62859 | 12.63598 | 24 ft | 6 kts | 266° |
| 2026-05-05 17:44 | 55.62875 | 12.63578 | 24 ft | 3 kts | 1° |
| 2026-05-05 17:44 | 55.62898 | 12.63612 | 26 ft | 4 kts | 42° |
| 2026-05-05 17:44 | 55.62908 | 12.63628 | 25 ft | 0 kts | 43° |
| 2026-05-05 17:44 | 55.62908 | 12.63629 | 25 ft | 0 kts | 43° |